createdAt,value
2022-08-31T00:00:09.234Z,13.15
2022-08-31T00:02:54.455Z,12.27
2022-08-31T00:05:24.068Z,12.15
2022-08-31T00:07:50.786Z,10.70
2022-08-31T00:10:18.959Z,10.55
2022-08-31T00:12:49.045Z,14.73
2022-08-31T00:15:20.224Z,11.98
2022-08-31T00:17:51.857Z,13.20
2022-08-31T00:20:33.121Z,11.35
2022-08-31T00:23:08.223Z,11.55
2022-08-31T00:25:36.077Z,12.40
2022-08-31T00:28:04.122Z,13.25
2022-08-31T00:30:32.222Z,12.38
2022-08-31T00:32:59.003Z,15.07
2022-08-31T00:35:30.566Z,12.13
2022-08-31T00:37:57.579Z,13.93
2022-08-31T00:40:25.236Z,13.23
2022-08-31T00:42:52.182Z,14.60
2022-08-31T00:45:19.316Z,11.18
2022-08-31T00:47:45.853Z,10.77
2022-08-31T00:50:15.158Z,11.00
2022-08-31T00:52:46.360Z,13.15
2022-08-31T00:55:20.188Z,10.98
2022-08-31T00:57:51.138Z,13.25
2022-08-31T01:00:21.213Z,12.25
2022-08-31T01:02:48.747Z,11.88
2022-08-31T01:05:16.823Z,10.52
2022-08-31T01:07:47.050Z,12.48
2022-08-31T01:10:15.582Z,13.38
2022-08-31T01:12:43.980Z,12.60
2022-08-31T01:15:13.588Z,13.82
2022-08-31T01:17:40.960Z,13.88
2022-08-31T01:20:34.623Z,12.05
2022-08-31T01:23:15.261Z,14.18
2022-08-31T01:25:43.801Z,11.88
2022-08-31T01:28:11.473Z,12.98
2022-08-31T01:30:38.754Z,11.77
2022-08-31T01:33:06.032Z,13.00
2022-08-31T01:35:33.762Z,14.98
2022-08-31T01:38:04.606Z,14.20
2022-08-31T01:40:46.271Z,14.23
2022-08-31T01:43:12.841Z,14.20
2022-08-31T01:45:40.857Z,13.52
2022-08-31T01:48:07.583Z,13.77
2022-08-31T01:50:34.155Z,13.55
2022-08-31T01:53:00.689Z,15.00
2022-08-31T01:55:29.410Z,14.65
2022-08-31T01:57:59.846Z,17.63
2022-08-31T02:00:38.559Z,15.90
2022-08-31T02:03:07.877Z,12.98
2022-08-31T02:05:36.976Z,13.55
2022-08-31T02:08:05.465Z,14.43
2022-08-31T02:10:32.494Z,14.88
2022-08-31T02:12:59.161Z,12.00
2022-08-31T02:15:37.831Z,13.35
2022-08-31T02:18:05.326Z,13.88
2022-08-31T02:20:32.160Z,12.93
2022-08-31T02:22:58.947Z,19.48
2022-08-31T02:25:25.578Z,12.65
2022-08-31T02:27:52.102Z,12.90
2022-08-31T02:30:19.597Z,15.93
2022-08-31T02:32:46.288Z,12.25
2022-08-31T02:35:13.245Z,13.00
2022-08-31T02:37:39.987Z,12.07
2022-08-31T02:40:12.278Z,12.60
2022-08-31T02:42:53.449Z,13.40
2022-08-31T02:45:24.438Z,12.88
2022-08-31T02:47:51.669Z,16.95
2022-08-31T02:50:45.081Z,12.60
2022-08-31T02:53:13.943Z,14.35
2022-08-31T02:55:42.946Z,12.18
2022-08-31T02:58:11.917Z,12.50
2022-08-31T03:00:40.549Z,13.32
2022-08-31T03:03:07.189Z,14.13
2022-08-31T03:05:33.950Z,15.77
2022-08-31T03:08:00.498Z,15.73
2022-08-31T03:10:27.218Z,14.05
2022-08-31T03:12:54.127Z,17.08
2022-08-31T03:15:24.329Z,14.07
2022-08-31T03:17:50.978Z,14.32
2022-08-31T03:20:21.442Z,15.70
2022-08-31T03:22:48.338Z,13.43
2022-08-31T03:25:17.664Z,15.40
2022-08-31T03:27:45.786Z,13.90
2022-08-31T03:30:15.810Z,12.07
2022-08-31T03:32:48.179Z,14.90
2022-08-31T03:35:17.997Z,18.10
2022-08-31T03:37:45.218Z,14.55
2022-08-31T03:40:13.389Z,16.63
2022-08-31T03:42:40.414Z,14.95
2022-08-31T03:45:08.939Z,11.40
2022-08-31T03:47:44.617Z,13.23
2022-08-31T03:50:12.526Z,14.30
2022-08-31T03:52:54.156Z,14.05
2022-08-31T03:55:21.676Z,12.65
2022-08-31T03:57:51.204Z,12.15
2022-08-31T04:00:18.866Z,13.18
2022-08-31T04:02:53.240Z,12.60
2022-08-31T04:05:35.291Z,13.48
2022-08-31T04:08:25.778Z,15.95
2022-08-31T04:11:20.159Z,13.07
2022-08-31T04:14:24.772Z,13.25
2022-08-31T04:17:11.394Z,13.35
2022-08-31T04:19:44.610Z,14.70
2022-08-31T04:22:35.552Z,17.70
2022-08-31T04:25:21.444Z,15.73
2022-08-31T04:27:50.260Z,13.20
2022-08-31T04:30:17.970Z,16.23
2022-08-31T04:32:44.484Z,14.32
2022-08-31T04:35:11.075Z,15.90
2022-08-31T04:37:44.603Z,13.40
2022-08-31T04:40:18.201Z,13.50
2022-08-31T04:42:49.212Z,12.93
2022-08-31T04:45:19.088Z,15.10
2022-08-31T04:47:45.657Z,14.82
2022-08-31T04:50:16.453Z,18.02
2022-08-31T04:53:06.830Z,14.43
2022-08-31T04:55:33.383Z,16.70
2022-08-31T04:57:59.965Z,22.35
2022-08-31T05:00:27.035Z,15.00
2022-08-31T05:03:12.290Z,13.20
2022-08-31T05:05:40.489Z,16.13
2022-08-31T05:08:07.510Z,14.93
2022-08-31T05:10:34.275Z,14.43
2022-08-31T05:13:01.035Z,15.55
2022-08-31T05:15:27.637Z,17.85
2022-08-31T05:17:54.223Z,17.40
2022-08-31T05:20:20.893Z,14.68
2022-08-31T05:22:47.470Z,13.82
2022-08-31T05:25:14.020Z,14.90
2022-08-31T05:27:42.058Z,14.85
2022-08-31T05:30:09.348Z,16.08
2022-08-31T05:32:41.640Z,14.52
2022-08-31T05:35:10.498Z,17.65
2022-08-31T05:37:38.005Z,14.93
2022-08-31T05:40:06.050Z,15.73
2022-08-31T05:42:32.699Z,18.25
2022-08-31T05:44:59.313Z,14.93
2022-08-31T05:47:25.829Z,14.57
2022-08-31T05:49:53.371Z,16.75
2022-08-31T05:52:25.023Z,16.23
2022-08-31T05:54:53.143Z,14.43
2022-08-31T05:57:23.342Z,15.38
2022-08-31T05:59:52.733Z,18.67
2022-08-31T06:02:20.713Z,13.52
2022-08-31T06:04:47.418Z,16.08
2022-08-31T06:07:19.160Z,17.33
2022-08-31T06:09:51.821Z,15.80
2022-08-31T06:12:19.981Z,18.75
2022-08-31T06:14:50.034Z,15.15
2022-08-31T06:17:19.975Z,15.57
2022-08-31T06:19:47.785Z,19.13
2022-08-31T06:22:14.367Z,14.52
2022-08-31T06:24:40.962Z,13.63
2022-08-31T06:27:07.485Z,14.30
2022-08-31T06:29:36.518Z,14.02
2022-08-31T06:32:08.205Z,15.65
2022-08-31T06:34:38.802Z,14.93
2022-08-31T06:37:06.223Z,14.88
2022-08-31T06:39:33.205Z,16.67
2022-08-31T06:42:20.262Z,16.52
2022-08-31T06:45:06.489Z,13.77
2022-08-31T06:47:48.616Z,11.95
2022-08-31T06:50:17.881Z,13.63
2022-08-31T06:52:45.448Z,14.95
2022-08-31T06:55:22.352Z,14.40
2022-08-31T06:58:07.496Z,16.67
2022-08-31T07:00:53.886Z,15.73
2022-08-31T07:03:41.319Z,17.52
2022-08-31T07:06:28.846Z,17.08
2022-08-31T07:09:01.115Z,14.20
2022-08-31T07:11:35.138Z,15.05
2022-08-31T07:14:02.680Z,19.08
2022-08-31T07:16:30.298Z,14.65
2022-08-31T07:19:00.491Z,14.52
2022-08-31T07:21:34.092Z,15.38
2022-08-31T07:24:02.844Z,14.32
2022-08-31T07:26:36.436Z,15.80
2022-08-31T07:29:07.714Z,35.08
2022-08-31T07:31:46.303Z,12.98
2022-08-31T07:34:18.641Z,12.77
2022-08-31T07:37:26.757Z,11.70
2022-08-31T07:40:13.334Z,14.75
2022-08-31T07:42:43.703Z,14.70
2022-08-31T07:45:24.273Z,16.42
2022-08-31T07:47:57.698Z,14.35
2022-08-31T07:50:27.425Z,13.68
2022-08-31T07:53:13.917Z,14.85
2022-08-31T07:55:55.443Z,12.93
2022-08-31T07:58:34.109Z,14.18
2022-08-31T08:01:02.980Z,13.52
2022-08-31T08:03:30.319Z,14.00
2022-08-31T08:06:16.838Z,13.52
2022-08-31T08:09:24.852Z,17.30
2022-08-31T08:12:07.584Z,12.73
2022-08-31T08:14:43.262Z,13.50
2022-08-31T08:17:31.200Z,14.43
2022-08-31T08:20:05.530Z,15.75
2022-08-31T08:22:51.509Z,19.45
2022-08-31T08:25:30.869Z,13.43
2022-08-31T08:28:39.065Z,13.88
2022-08-31T08:31:14.020Z,14.45
2022-08-31T08:33:40.953Z,16.15
2022-08-31T08:36:08.567Z,13.82
2022-08-31T08:38:39.451Z,16.27
2022-08-31T08:41:12.818Z,16.05
2022-08-31T08:43:44.098Z,15.95
2022-08-31T08:46:34.056Z,16.73
2022-08-31T08:49:14.970Z,12.35
2022-08-31T08:51:43.642Z,14.95
2022-08-31T08:54:13.640Z,15.85
2022-08-31T08:56:49.003Z,16.52
2022-08-31T08:59:20.197Z,13.68
2022-08-31T09:01:50.914Z,13.95
2022-08-31T09:04:31.778Z,12.73
2022-08-31T09:07:22.970Z,15.70
2022-08-31T09:10:09.917Z,15.95
2022-08-31T09:12:58.646Z,12.60
2022-08-31T09:16:05.937Z,15.48
2022-08-31T09:18:53.994Z,18.05
2022-08-31T09:21:34.284Z,13.75
2022-08-31T09:24:08.353Z,15.95
2022-08-31T09:27:21.015Z,14.05
2022-08-31T09:29:57.062Z,16.67
2022-08-31T09:32:35.645Z,15.77
2022-08-31T09:35:10.053Z,15.50
2022-08-31T09:37:44.969Z,15.05
2022-08-31T09:40:44.196Z,14.65
2022-08-31T09:43:30.334Z,16.65
2022-08-31T09:46:10.185Z,16.17
2022-08-31T09:48:56.114Z,16.30
2022-08-31T09:51:28.182Z,13.95
2022-08-31T09:54:18.258Z,13.93
2022-08-31T09:56:56.641Z,15.57
2022-08-31T09:59:41.960Z,16.70
2022-08-31T10:02:22.681Z,15.18
2022-08-31T10:04:54.508Z,15.82
2022-08-31T10:07:47.995Z,16.65
2022-08-31T10:10:30.309Z,15.98
2022-08-31T10:13:08.836Z,13.90
2022-08-31T10:15:46.465Z,18.67
2022-08-31T10:18:19.533Z,22.20
2022-08-31T10:21:07.786Z,14.77
2022-08-31T10:23:54.079Z,17.67
2022-08-31T10:26:31.671Z,15.75
2022-08-31T10:29:03.981Z,16.52
2022-08-31T10:31:34.000Z,14.52
2022-08-31T10:34:32.237Z,17.52
2022-08-31T10:37:12.507Z,16.90
2022-08-31T10:39:50.401Z,16.48
2022-08-31T10:42:30.067Z,16.92
2022-08-31T10:45:04.190Z,18.17
2022-08-31T10:47:41.354Z,17.42
2022-08-31T10:50:10.380Z,17.45
2022-08-31T10:53:01.830Z,18.58
2022-08-31T10:55:39.483Z,21.08
2022-08-31T10:58:21.307Z,18.08
2022-08-31T11:01:06.819Z,15.45
2022-08-31T11:03:50.365Z,17.02
2022-08-31T11:06:49.222Z,17.95
2022-08-31T11:09:31.039Z,14.57
2022-08-31T11:12:08.452Z,18.52
2022-08-31T11:14:45.209Z,19.92
2022-08-31T11:17:37.949Z,17.08
2022-08-31T11:20:27.369Z,15.65
2022-08-31T11:23:18.578Z,19.65
2022-08-31T11:26:03.595Z,14.43
2022-08-31T11:28:49.355Z,15.07
2022-08-31T11:31:24.007Z,16.10
2022-08-31T11:34:22.576Z,18.13
2022-08-31T11:36:50.899Z,17.45
2022-08-31T11:39:36.110Z,17.50
2022-08-31T11:42:37.916Z,18.95
2022-08-31T11:45:29.997Z,18.48
2022-08-31T11:47:57.499Z,18.75
2022-08-31T11:50:36.406Z,17.85
2022-08-31T11:53:19.816Z,17.98
2022-08-31T11:55:52.500Z,16.50
2022-08-31T11:58:25.984Z,18.17
2022-08-31T12:00:59.952Z,22.20
2022-08-31T12:03:40.430Z,16.13
2022-08-31T12:06:33.232Z,18.88
2022-08-31T12:09:23.393Z,19.92
2022-08-31T12:12:06.489Z,18.17
2022-08-31T12:14:39.602Z,21.25
2022-08-31T12:17:35.677Z,19.45
2022-08-31T12:20:02.667Z,19.42
2022-08-31T12:22:53.879Z,21.85
2022-08-31T12:25:45.023Z,20.25
2022-08-31T12:28:39.262Z,17.55
2022-08-31T12:31:12.679Z,21.30
2022-08-31T12:36:15.337Z,22.25
2022-08-31T12:38:42.001Z,22.73
2022-08-31T12:41:13.973Z,22.52
2022-08-31T12:43:46.663Z,25.35
2022-08-31T12:46:29.247Z,20.83
2022-08-31T12:49:10.395Z,24.60
2022-08-31T12:51:43.258Z,22.48
2022-08-31T12:54:33.788Z,22.23
2022-08-31T12:57:18.242Z,28.05
2022-08-31T13:00:07.761Z,22.83
2022-08-31T13:02:39.356Z,29.00
2022-08-31T13:05:25.361Z,25.55
2022-08-31T13:07:52.278Z,29.13
2022-08-31T13:10:21.764Z,22.10
2022-08-31T13:12:57.664Z,26.77
2022-08-31T13:18:19.424Z,23.15
2022-08-31T13:20:46.774Z,21.98
2022-08-31T13:23:22.132Z,23.42
2022-08-31T13:26:05.871Z,20.58
2022-08-31T13:28:34.955Z,22.33
2022-08-31T13:31:10.731Z,20.73
2022-08-31T13:33:42.959Z,22.25
2022-08-31T13:36:09.791Z,22.15
2022-08-31T13:38:50.937Z,21.77
2022-08-31T13:41:31.324Z,24.25
2022-08-31T13:44:03.592Z,21.77
2022-08-31T13:46:42.901Z,26.08
2022-08-31T13:49:32.231Z,20.77
2022-08-31T13:51:59.550Z,15.68
2022-08-31T13:54:30.508Z,15.30
2022-08-31T13:57:16.390Z,15.88
2022-08-31T13:59:42.914Z,18.42
2022-08-31T14:02:14.783Z,16.33
2022-08-31T14:04:46.429Z,16.38
2022-08-31T14:07:29.541Z,18.38
2022-08-31T14:10:00.568Z,19.25
2022-08-31T14:12:46.008Z,20.75
2022-08-31T14:15:17.525Z,18.63
2022-08-31T14:20:53.396Z,16.63
2022-08-31T14:23:28.027Z,18.80
2022-08-31T14:26:01.652Z,15.98
2022-08-31T14:28:40.476Z,15.02
2022-08-31T14:31:22.815Z,15.25
2022-08-31T14:33:56.034Z,18.83
2022-08-31T14:36:24.554Z,18.45
2022-08-31T14:38:54.145Z,14.70
2022-08-31T14:41:28.552Z,16.10
2022-08-31T14:43:57.622Z,12.93
2022-08-31T14:46:28.094Z,14.20
2022-08-31T14:48:56.367Z,17.00
2022-08-31T14:51:24.033Z,23.17
2022-08-31T14:53:56.819Z,49.63
2022-08-31T14:56:33.140Z,16.25
2022-08-31T14:59:03.979Z,20.42
2022-08-31T15:01:35.636Z,17.13
2022-08-31T15:04:04.833Z,15.50
2022-08-31T15:06:33.248Z,16.48
2022-08-31T15:09:04.579Z,13.80
2022-08-31T15:11:35.318Z,16.27
2022-08-31T15:14:07.607Z,14.90
2022-08-31T15:16:34.270Z,14.77
2022-08-31T15:19:02.088Z,17.23
2022-08-31T15:21:29.109Z,14.82
2022-08-31T15:23:55.608Z,13.85
2022-08-31T15:26:22.953Z,16.52
2022-08-31T15:28:52.513Z,13.70
2022-08-31T15:31:27.021Z,14.95
2022-08-31T15:33:55.446Z,13.15
2022-08-31T15:36:25.001Z,13.15
2022-08-31T15:38:55.466Z,13.43
2022-08-31T15:41:23.172Z,14.52
2022-08-31T15:43:52.111Z,25.17
2022-08-31T15:46:39.664Z,15.85
2022-08-31T15:49:09.827Z,15.57
2022-08-31T15:51:49.000Z,15.43
2022-08-31T15:54:22.526Z,14.15
2022-08-31T15:56:53.909Z,16.98
2022-08-31T15:59:24.067Z,15.18
2022-08-31T16:01:52.961Z,13.52
2022-08-31T16:04:23.704Z,13.65
2022-08-31T16:06:51.893Z,12.43
2022-08-31T16:09:21.235Z,14.25
2022-08-31T16:11:50.157Z,13.10
2022-08-31T16:14:17.731Z,12.27
2022-08-31T16:16:47.726Z,15.80
2022-08-31T16:19:34.249Z,11.63
2022-08-31T16:22:03.016Z,11.63
2022-08-31T16:24:35.938Z,10.57
2022-08-31T16:27:06.291Z,9.15
2022-08-31T16:29:33.593Z,9.63
2022-08-31T16:32:00.480Z,8.52
2022-08-31T16:34:27.137Z,9.60
2022-08-31T16:36:53.694Z,13.65
2022-08-31T16:39:20.565Z,10.48
2022-08-31T16:41:47.384Z,20.77
2022-08-31T16:44:21.612Z,8.55
2022-08-31T16:46:48.359Z,23.42
2022-08-31T16:49:33.480Z,20.45
2022-08-31T16:52:12.443Z,13.07
2022-08-31T16:54:45.107Z,10.35
2022-08-31T16:57:14.409Z,9.35
2022-08-31T16:59:41.538Z,11.05
2022-08-31T17:02:11.814Z,10.50
2022-08-31T17:04:52.058Z,9.80
2022-08-31T17:07:20.361Z,11.60
2022-08-31T17:09:47.034Z,8.20
2022-08-31T17:12:17.120Z,7.72
2022-08-31T17:14:48.247Z,6.70
2022-08-31T17:17:18.417Z,7.45
2022-08-31T17:19:46.386Z,8.27
2022-08-31T17:22:21.496Z,7.68
2022-08-31T17:24:50.919Z,9.70
2022-08-31T17:27:20.106Z,9.07
2022-08-31T17:29:51.084Z,9.40
2022-08-31T17:32:21.149Z,9.68
2022-08-31T17:34:51.812Z,8.95
2022-08-31T17:37:25.963Z,8.75
2022-08-31T17:39:53.023Z,9.15
2022-08-31T17:42:21.891Z,9.10
2022-08-31T17:44:52.160Z,8.30
2022-08-31T17:47:21.246Z,13.50
2022-08-31T17:49:50.788Z,9.23
2022-08-31T17:52:20.575Z,9.27
2022-08-31T17:54:48.558Z,10.50
2022-08-31T17:57:16.881Z,10.18
2022-08-31T17:59:50.531Z,8.63
2022-08-31T18:02:21.153Z,12.07
2022-08-31T18:04:48.927Z,10.82
2022-08-31T18:07:16.519Z,11.45
2022-08-31T18:09:45.501Z,9.23
2022-08-31T18:12:14.286Z,11.38
2022-08-31T18:14:41.639Z,12.85
2022-08-31T18:17:10.936Z,12.82
2022-08-31T18:19:38.211Z,11.18
2022-08-31T18:22:05.937Z,11.80
2022-08-31T18:24:35.715Z,12.25
2022-08-31T18:27:07.130Z,15.68
2022-08-31T18:29:36.139Z,13.35
2022-08-31T18:32:04.364Z,12.40
2022-08-31T18:34:40.150Z,15.07
2022-08-31T18:37:08.025Z,16.17
2022-08-31T18:39:54.844Z,14.10
2022-08-31T18:42:44.079Z,13.95
2022-08-31T18:45:18.480Z,14.82
2022-08-31T18:50:44.682Z,16.58
2022-08-31T18:53:15.348Z,16.55
2022-08-31T18:55:44.027Z,14.20
2022-08-31T18:58:10.831Z,17.00
2022-08-31T19:00:38.142Z,14.85
2022-08-31T19:03:04.849Z,17.00
2022-08-31T19:05:32.650Z,15.65
2022-08-31T19:08:00.537Z,14.73
2022-08-31T19:10:28.243Z,14.80
2022-08-31T19:12:59.437Z,14.98
2022-08-31T19:15:36.239Z,15.75
2022-08-31T19:18:05.324Z,16.63
2022-08-31T19:20:33.323Z,20.17
2022-08-31T19:23:00.566Z,17.40
2022-08-31T19:25:27.859Z,18.00
2022-08-31T19:28:01.275Z,19.38
2022-08-31T19:30:28.486Z,17.48
2022-08-31T19:32:56.927Z,15.77
2022-08-31T19:35:26.959Z,18.02
2022-08-31T19:37:56.466Z,18.63
2022-08-31T19:40:35.622Z,18.83
2022-08-31T19:45:50.010Z,23.65
2022-08-31T19:48:23.955Z,20.92
2022-08-31T19:53:21.486Z,20.67
2022-08-31T19:55:52.021Z,18.65
2022-08-31T20:06:52.661Z,19.17
2022-08-31T20:13:31.769Z,20.25
2022-08-31T20:15:58.704Z,19.98
2022-08-31T20:18:28.235Z,22.92
2022-08-31T20:20:56.757Z,22.70
2022-08-31T20:23:23.746Z,21.73
2022-08-31T20:29:38.846Z,23.60
2022-08-31T20:32:07.904Z,23.08
2022-08-31T20:34:34.621Z,25.40
2022-08-31T20:41:08.107Z,22.13
2022-08-31T20:44:43.079Z,23.27
2022-08-31T20:49:58.557Z,25.98
2022-08-31T20:52:34.946Z,24.48
2022-08-31T20:55:03.868Z,23.60
2022-08-31T20:57:35.026Z,23.08
2022-08-31T21:00:07.157Z,22.75
2022-08-31T21:02:34.729Z,20.00
2022-08-31T21:05:20.755Z,22.25
2022-08-31T21:07:48.785Z,22.80
2022-08-31T21:10:15.355Z,19.85
2022-08-31T21:12:42.659Z,22.45
2022-08-31T21:15:10.166Z,21.35
2022-08-31T21:17:36.748Z,20.17
2022-08-31T21:20:05.054Z,19.02
2022-08-31T21:22:31.617Z,22.27
2022-08-31T21:24:59.716Z,24.23
2022-08-31T21:27:28.793Z,20.60
2022-08-31T21:29:55.356Z,22.20
2022-08-31T21:32:22.116Z,20.08
2022-08-31T21:34:48.742Z,18.27
2022-08-31T21:37:15.425Z,21.20
2022-08-31T21:39:41.939Z,19.50
2022-08-31T21:42:08.616Z,21.90
2022-08-31T21:44:35.970Z,22.30
2022-08-31T21:47:03.223Z,21.13
2022-08-31T21:49:30.082Z,19.70
2022-08-31T21:51:58.020Z,21.08
2022-08-31T21:54:27.637Z,18.52
2022-08-31T21:56:57.179Z,18.48
2022-08-31T21:59:26.929Z,22.42
2022-08-31T22:01:59.189Z,20.90
2022-08-31T22:04:29.535Z,22.88
2022-08-31T22:06:57.654Z,19.42
2022-08-31T22:09:24.265Z,24.52
2022-08-31T22:11:54.838Z,22.23
2022-08-31T22:14:26.223Z,21.10
2022-08-31T22:16:56.281Z,23.48
2022-08-31T22:19:25.529Z,22.02
2022-08-31T22:21:54.443Z,22.88
2022-08-31T22:24:27.765Z,21.90
2022-08-31T22:26:56.132Z,22.83
2022-08-31T22:29:24.880Z,19.50
2022-08-31T22:31:55.035Z,19.77
2022-08-31T22:34:22.009Z,20.20
2022-08-31T22:36:51.952Z,26.75
2022-08-31T22:39:25.110Z,23.42
2022-08-31T22:41:53.113Z,24.70
2022-08-31T22:44:22.267Z,24.02
2022-08-31T22:46:48.960Z,25.77
2022-08-31T22:49:15.634Z,23.60
2022-08-31T22:51:43.878Z,24.60
2022-08-31T22:54:10.952Z,23.33
2022-08-31T22:56:39.113Z,21.58
2022-08-31T22:59:10.195Z,22.65
2022-08-31T23:01:48.282Z,21.90
2022-08-31T23:04:20.345Z,21.98
2022-08-31T23:06:49.235Z,24.25
2022-08-31T23:09:20.847Z,22.33
2022-08-31T23:11:49.146Z,22.38
2022-08-31T23:14:15.642Z,24.77
2022-08-31T23:16:46.966Z,22.02
2022-08-31T23:19:18.471Z,23.15
2022-08-31T23:21:56.811Z,23.80
2022-08-31T23:24:37.439Z,25.55
2022-08-31T23:27:05.691Z,24.27
2022-08-31T23:29:35.807Z,26.95
2022-08-31T23:32:04.252Z,25.23
2022-08-31T23:34:30.866Z,24.95
2022-08-31T23:36:57.537Z,23.58
2022-08-31T23:39:24.876Z,28.17
2022-08-31T23:41:53.354Z,20.35
2022-08-31T23:44:20.822Z,26.85
2022-08-31T23:46:48.613Z,26.23
2022-08-31T23:49:17.080Z,25.40
2022-08-31T23:51:44.375Z,22.83
2022-08-31T23:54:12.575Z,23.45
2022-08-31T23:56:41.820Z,25.45
2022-08-31T23:59:12.498Z,21.77
